createdAt,value
2023-02-09T00:02:55.942Z,18.20
2023-02-09T00:07:58.079Z,17.70
2023-02-09T00:13:18.746Z,20.92
2023-02-09T00:18:22.061Z,19.15
2023-02-09T00:23:25.111Z,18.95
2023-02-09T00:28:27.824Z,18.02
2023-02-09T00:33:30.059Z,19.25
2023-02-09T00:38:32.366Z,17.25
2023-02-09T00:43:35.217Z,19.63
2023-02-09T00:48:37.480Z,20.23
2023-02-09T00:53:39.637Z,16.70
2023-02-09T00:58:41.793Z,18.27
2023-02-09T01:03:43.988Z,16.42
2023-02-09T01:08:46.189Z,15.25
2023-02-09T01:13:48.303Z,17.98
2023-02-09T01:18:50.572Z,16.83
2023-02-09T01:23:52.809Z,17.98
2023-02-09T01:28:55.347Z,19.02
2023-02-09T01:33:59.899Z,20.75
2023-02-09T01:39:04.111Z,17.50
2023-02-09T01:44:11.946Z,22.35
2023-02-09T01:49:17.821Z,16.55
2023-02-09T01:54:25.110Z,18.88
2023-02-09T01:59:27.944Z,16.75
2023-02-09T02:04:31.128Z,12.68
2023-02-09T02:09:33.319Z,15.05
2023-02-09T02:14:39.822Z,15.25
2023-02-09T02:20:09.255Z,13.07
2023-02-09T02:25:23.220Z,14.57
2023-02-09T02:30:25.366Z,15.95
2023-02-09T02:36:04.574Z,13.80
2023-02-09T02:41:15.486Z,12.77
2023-02-09T02:46:33.341Z,15.00
2023-02-09T02:51:43.741Z,13.70
2023-02-09T02:56:52.352Z,12.20
2023-02-09T03:02:04.083Z,12.65
2023-02-09T03:07:10.001Z,15.27
2023-02-09T03:12:30.204Z,11.82
2023-02-09T03:17:48.670Z,9.68
2023-02-09T03:22:58.576Z,12.48
2023-02-09T03:28:20.220Z,14.80
2023-02-09T03:33:26.902Z,15.60
2023-02-09T03:38:29.261Z,14.80
2023-02-09T03:43:51.599Z,15.48
2023-02-09T03:53:55.886Z,13.80
2023-02-09T03:58:58.001Z,13.70
2023-02-09T04:04:02.309Z,13.15
2023-02-09T04:09:06.593Z,10.82
2023-02-09T04:14:10.010Z,12.68
2023-02-09T04:19:12.752Z,16.20
2023-02-09T04:24:15.198Z,12.18
2023-02-09T04:29:17.440Z,9.55
2023-02-09T04:34:21.558Z,14.82
2023-02-09T04:39:23.710Z,15.30
2023-02-09T04:44:25.841Z,17.65
2023-02-09T04:49:28.056Z,15.27
2023-02-09T04:54:30.244Z,24.17
2023-02-09T04:59:35.285Z,20.67
2023-02-09T05:04:37.591Z,19.08
2023-02-09T05:09:39.812Z,14.32
2023-02-09T05:14:41.980Z,16.02
2023-02-09T05:19:44.138Z,13.45
2023-02-09T05:24:46.306Z,14.80
2023-02-09T05:29:48.489Z,15.90
2023-02-09T05:34:50.760Z,19.80
2023-02-09T05:39:53.275Z,12.27
2023-02-09T05:44:55.408Z,14.73
2023-02-09T05:49:57.592Z,12.30
2023-02-09T05:54:59.856Z,12.02
2023-02-09T06:00:02.441Z,12.27
2023-02-09T06:05:05.850Z,12.20
2023-02-09T06:10:08.268Z,11.00
2023-02-09T06:15:11.206Z,16.88
2023-02-09T06:20:13.349Z,12.50
2023-02-09T06:25:15.565Z,16.17
2023-02-09T06:30:17.860Z,15.82
2023-02-09T06:35:20.054Z,22.70
2023-02-09T06:40:22.213Z,11.10
2023-02-09T06:45:24.382Z,14.75
2023-02-09T06:50:26.626Z,13.57
2023-02-09T06:55:29.159Z,12.57
2023-02-09T07:00:32.230Z,17.08
2023-02-09T07:05:34.397Z,17.10
2023-02-09T07:10:36.664Z,14.80
2023-02-09T07:15:39.358Z,25.17
2023-02-09T07:20:44.547Z,16.27
2023-02-09T07:25:46.891Z,16.27
2023-02-09T07:30:53.555Z,11.23
2023-02-09T07:35:55.717Z,11.85
2023-02-09T07:41:02.192Z,15.68
2023-02-09T07:46:06.745Z,10.07
2023-02-09T07:51:14.423Z,11.50
2023-02-09T07:56:16.664Z,11.07
2023-02-09T08:01:19.222Z,10.50
2023-02-09T08:06:42.398Z,14.43
2023-02-09T08:11:56.549Z,9.43
2023-02-09T08:17:21.137Z,12.63
2023-02-09T08:22:25.163Z,12.88
2023-02-09T08:27:27.725Z,11.43
2023-02-09T08:32:29.971Z,10.45
2023-02-09T08:37:32.184Z,11.88
2023-02-09T08:42:34.322Z,11.65
2023-02-09T08:47:36.772Z,8.27
2023-02-09T08:52:39.117Z,10.75
2023-02-09T08:57:44.489Z,10.40
2023-02-09T09:02:46.900Z,12.70
2023-02-09T09:07:49.047Z,7.82
2023-02-09T09:12:52.199Z,10.27
2023-02-09T09:17:54.280Z,13.82
2023-02-09T09:22:59.686Z,9.35
2023-02-09T09:28:02.235Z,10.98
2023-02-09T09:33:06.360Z,13.15
2023-02-09T09:38:09.382Z,8.13
2023-02-09T09:43:33.093Z,12.93
2023-02-09T09:48:48.332Z,8.82
2023-02-09T09:53:53.819Z,10.25
2023-02-09T09:58:56.502Z,8.98
2023-02-09T10:04:07.753Z,14.15
2023-02-09T10:09:23.791Z,12.95
2023-02-09T10:14:25.950Z,13.73
2023-02-09T10:19:29.476Z,17.88
2023-02-09T10:24:33.804Z,16.98
2023-02-09T10:29:36.585Z,12.48
2023-02-09T10:34:38.690Z,13.52
2023-02-09T10:39:41.129Z,13.80
2023-02-09T10:44:50.999Z,15.32
2023-02-09T10:50:02.160Z,13.82
2023-02-09T10:55:18.148Z,15.10
2023-02-09T11:00:20.258Z,12.02
2023-02-09T11:05:22.284Z,14.93
2023-02-09T11:10:26.474Z,11.20
2023-02-09T11:15:36.247Z,13.48
2023-02-09T11:20:51.560Z,8.73
2023-02-09T11:26:08.096Z,13.88
2023-02-09T11:31:48.204Z,9.15
2023-02-09T11:37:16.768Z,10.40
2023-02-09T11:42:44.834Z,8.88
2023-02-09T11:48:14.776Z,10.43
2023-02-09T11:53:37.118Z,10.93
2023-02-09T11:58:47.082Z,12.38
2023-02-09T12:04:13.905Z,8.80
2023-02-09T12:09:40.248Z,15.43
2023-02-09T12:15:03.995Z,11.82
2023-02-09T12:20:20.644Z,10.07
2023-02-09T12:25:34.167Z,9.52
2023-02-09T12:30:42.511Z,14.23
2023-02-09T12:35:57.915Z,14.10
2023-02-09T12:41:06.385Z,16.27
2023-02-09T12:46:20.334Z,13.10
2023-02-09T12:51:56.481Z,11.48
2023-02-09T12:57:16.813Z,16.63
2023-02-09T13:02:39.877Z,20.40
2023-02-09T13:08:13.486Z,14.32
2023-02-09T13:13:22.038Z,15.15
2023-02-09T13:18:35.666Z,15.68
2023-02-09T13:24:14.712Z,15.73
2023-02-09T13:29:21.595Z,16.98
2023-02-09T13:34:46.406Z,18.20
2023-02-09T13:39:57.749Z,20.55
2023-02-09T13:45:00.211Z,21.23
2023-02-09T13:50:14.842Z,16.85
2023-02-09T13:55:24.399Z,18.30
2023-02-09T14:00:29.926Z,25.13
2023-02-09T14:05:41.594Z,15.25
2023-02-09T14:10:48.872Z,15.18
2023-02-09T14:16:08.808Z,16.35
2023-02-09T14:21:11.252Z,11.57
2023-02-09T14:26:24.149Z,19.48
2023-02-09T14:31:27.104Z,17.77
2023-02-09T14:36:35.243Z,18.95
2023-02-09T14:41:37.692Z,14.52
2023-02-09T14:46:52.223Z,25.52
2023-02-09T14:52:14.089Z,16.38
2023-02-09T14:57:17.102Z,23.85
2023-02-09T15:02:23.675Z,14.90
2023-02-09T15:07:38.908Z,22.73
2023-02-09T15:12:41.245Z,18.70
2023-02-09T15:17:43.420Z,16.55
2023-02-09T15:22:45.545Z,21.38
2023-02-09T15:27:58.258Z,22.00
2023-02-09T15:33:01.266Z,16.70
2023-02-09T15:38:03.644Z,23.23
2023-02-09T15:43:38.476Z,21.58
2023-02-09T15:48:40.646Z,16.25
2023-02-09T15:53:43.477Z,17.38
2023-02-09T15:58:47.098Z,21.52
2023-02-09T16:03:49.555Z,14.73
2023-02-09T16:08:53.722Z,21.92
2023-02-09T16:13:56.175Z,19.98
2023-02-09T16:18:58.310Z,21.77
2023-02-09T16:24:05.287Z,20.58
2023-02-09T16:29:11.827Z,23.05
2023-02-09T16:34:15.846Z,21.17
2023-02-09T16:39:20.712Z,28.15
2023-02-09T16:44:25.037Z,17.55
2023-02-09T16:49:35.983Z,19.42
2023-02-09T16:54:43.932Z,23.77
2023-02-09T16:59:46.821Z,20.60
2023-02-09T17:04:48.895Z,25.80
2023-02-09T17:09:51.012Z,18.55
2023-02-09T17:14:53.302Z,26.27
2023-02-09T17:19:56.347Z,19.13
2023-02-09T17:24:58.558Z,28.00
2023-02-09T17:30:00.723Z,21.48
2023-02-09T17:35:02.903Z,23.05
2023-02-09T17:40:05.336Z,19.88
2023-02-09T17:45:22.997Z,17.33
2023-02-09T17:50:26.912Z,22.00
2023-02-09T17:55:31.279Z,21.35
2023-02-09T18:00:33.482Z,36.75
2023-02-09T18:05:40.829Z,25.02
2023-02-09T18:10:43.237Z,23.38
2023-02-09T18:15:46.911Z,20.33
2023-02-09T18:20:49.299Z,16.00
2023-02-09T18:25:51.542Z,20.17
2023-02-09T18:30:54.082Z,21.05
2023-02-09T18:35:56.193Z,26.58
2023-02-09T18:40:58.246Z,22.73
2023-02-09T18:46:01.502Z,19.83
2023-02-09T18:51:08.171Z,23.60
2023-02-09T18:56:21.044Z,17.92
2023-02-09T19:01:24.655Z,20.15
2023-02-09T19:06:26.947Z,18.70
2023-02-09T19:11:29.132Z,20.42
2023-02-09T19:16:31.515Z,31.13
2023-02-09T19:21:33.766Z,18.95
2023-02-09T19:26:35.982Z,27.25
2023-02-09T19:31:38.201Z,25.48
2023-02-09T19:36:40.345Z,39.60
2023-02-09T19:41:44.601Z,25.33
2023-02-09T19:46:46.846Z,20.95
2023-02-09T19:51:49.598Z,26.40
2023-02-09T19:56:52.246Z,25.48
2023-02-09T20:01:54.404Z,27.00
2023-02-09T20:06:56.778Z,48.35
2023-02-09T20:11:59.045Z,25.92
2023-02-09T20:17:01.282Z,50.88
2023-02-09T20:22:03.870Z,41.17
2023-02-09T20:27:08.003Z,55.88
2023-02-09T20:32:11.086Z,47.45
2023-02-09T20:37:13.193Z,41.53
2023-02-09T20:42:33.618Z,32.47
2023-02-09T20:47:35.712Z,34.13
2023-02-09T20:52:39.813Z,37.55
2023-02-09T20:57:42.129Z,36.00
2023-02-09T21:02:44.383Z,35.17
2023-02-09T21:07:52.371Z,33.33
2023-02-09T21:12:54.869Z,34.78
2023-02-09T21:17:57.399Z,32.65
2023-02-09T21:22:59.739Z,42.30
2023-02-09T21:28:02.488Z,31.08
2023-02-09T21:33:04.865Z,42.05
2023-02-09T21:38:07.873Z,97.45
2023-02-09T21:43:10.154Z,36.83
2023-02-09T21:48:12.408Z,63.58
2023-02-09T21:53:14.602Z,38.08
2023-02-09T21:58:16.868Z,25.88
2023-02-09T22:03:19.096Z,29.35
2023-02-09T22:08:21.245Z,26.50
2023-02-09T22:13:23.433Z,30.77
2023-02-09T22:18:25.766Z,28.83
2023-02-09T22:23:27.923Z,30.38
2023-02-09T22:28:30.353Z,32.50
2023-02-09T22:33:32.582Z,22.70
2023-02-09T22:38:35.986Z,19.48
2023-02-09T22:43:38.221Z,26.70
2023-02-09T22:48:40.406Z,17.50
2023-02-09T22:53:42.620Z,24.48
2023-02-09T22:58:44.773Z,23.77
2023-02-09T23:03:46.981Z,29.38
2023-02-09T23:08:53.132Z,27.42
2023-02-09T23:14:11.718Z,30.88
2023-02-09T23:19:17.568Z,29.60
2023-02-09T23:24:22.111Z,36.95
2023-02-09T23:29:24.538Z,28.15
2023-02-09T23:34:26.826Z,26.98
2023-02-09T23:39:29.046Z,25.98
2023-02-09T23:44:31.262Z,19.95
2023-02-09T23:49:33.478Z,18.35
2023-02-09T23:54:35.714Z,20.45
2023-02-09T23:59:37.914Z,18.92
